sensor_id;sensor_type;location;lat;lon;timestamp;P1;durP1;ratioP1;P2;durP2;ratioP2
44885;SDS011;36669;51.428;21.162;2022-10-31T00:00:20;78.20;;;50.47;;
44885;SDS011;36669;51.428;21.162;2022-10-31T00:02:45;66.28;;;46.30;;
44885;SDS011;36669;51.428;21.162;2022-10-31T00:05:11;73.32;;;46.95;;
44885;SDS011;36669;51.428;21.162;2022-10-31T00:07:37;70.50;;;46.38;;
44885;SDS011;36669;51.428;21.162;2022-10-31T00:10:02;71.97;;;48.60;;
44885;SDS011;36669;51.428;21.162;2022-10-31T00:12:29;76.18;;;49.30;;
44885;SDS011;36669;51.428;21.162;2022-10-31T00:14:54;79.72;;;50.33;;
44885;SDS011;36669;51.428;21.162;2022-10-31T00:17:20;83.57;;;50.28;;
44885;SDS011;36669;51.428;21.162;2022-10-31T00:19:45;88.90;;;53.10;;
44885;SDS011;36669;51.428;21.162;2022-10-31T00:22:11;93.65;;;55.75;;
44885;SDS011;36669;51.428;21.162;2022-10-31T00:24:36;91.22;;;54.10;;
44885;SDS011;36669;51.428;21.162;2022-10-31T00:27:02;98.70;;;57.38;;
44885;SDS011;36669;51.428;21.162;2022-10-31T00:29:28;99.38;;;57.00;;
44885;SDS011;36669;51.428;21.162;2022-10-31T00:31:54;94.65;;;55.83;;
44885;SDS011;36669;51.428;21.162;2022-10-31T00:34:19;129.80;;;60.92;;
44885;SDS011;36669;51.428;21.162;2022-10-31T00:36:45;98.38;;;58.58;;
44885;SDS011;36669;51.428;21.162;2022-10-31T00:39:10;90.72;;;56.42;;
44885;SDS011;36669;51.428;21.162;2022-10-31T00:41:36;99.55;;;59.28;;
44885;SDS011;36669;51.428;21.162;2022-10-31T00:44:01;105.15;;;61.10;;
44885;SDS011;36669;51.428;21.162;2022-10-31T00:46:27;204.68;;;90.95;;
44885;SDS011;36669;51.428;21.162;2022-10-31T00:48:52;181.65;;;89.35;;
44885;SDS011;36669;51.428;21.162;2022-10-31T00:51:18;251.95;;;93.85;;
44885;SDS011;36669;51.428;21.162;2022-10-31T00:53:45;339.65;;;100.88;;
44885;SDS011;36669;51.428;21.162;2022-10-31T00:56:12;350.35;;;101.88;;
44885;SDS011;36669;51.428;21.162;2022-10-31T00:58:37;260.98;;;94.95;;
44885;SDS011;36669;51.428;21.162;2022-10-31T01:01:03;200.63;;;81.72;;
44885;SDS011;36669;51.428;21.162;2022-10-31T01:03:30;146.25;;;73.57;;
44885;SDS011;36669;51.428;21.162;2022-10-31T01:06:06;119.10;;;67.55;;
44885;SDS011;36669;51.428;21.162;2022-10-31T01:08:34;129.23;;;62.90;;
44885;SDS011;36669;51.428;21.162;2022-10-31T01:11:02;93.03;;;55.78;;
44885;SDS011;36669;51.428;21.162;2022-10-31T01:13:28;90.90;;;58.55;;
44885;SDS011;36669;51.428;21.162;2022-10-31T01:15:55;117.70;;;61.47;;
44885;SDS011;36669;51.428;21.162;2022-10-31T01:18:22;86.55;;;53.88;;
44885;SDS011;36669;51.428;21.162;2022-10-31T01:21:10;95.72;;;58.35;;
44885;SDS011;36669;51.428;21.162;2022-10-31T01:23:36;93.30;;;58.55;;
44885;SDS011;36669;51.428;21.162;2022-10-31T01:26:35;105.30;;;60.58;;
44885;SDS011;36669;51.428;21.162;2022-10-31T01:29:04;108.80;;;60.53;;
44885;SDS011;36669;51.428;21.162;2022-10-31T01:31:33;102.78;;;58.85;;
44885;SDS011;36669;51.428;21.162;2022-10-31T01:34:01;112.68;;;61.70;;
44885;SDS011;36669;51.428;21.162;2022-10-31T01:36:28;114.10;;;64.32;;
44885;SDS011;36669;51.428;21.162;2022-10-31T01:38:56;126.32;;;65.35;;
44885;SDS011;36669;51.428;21.162;2022-10-31T01:41:24;328.70;;;76.75;;
44885;SDS011;36669;51.428;21.162;2022-10-31T01:43:55;154.00;;;65.75;;
44885;SDS011;36669;51.428;21.162;2022-10-31T01:49:00;145.55;;;65.63;;
44885;SDS011;36669;51.428;21.162;2022-10-31T01:51:31;261.42;;;72.68;;
44885;SDS011;36669;51.428;21.162;2022-10-31T01:54:00;221.82;;;72.45;;
44885;SDS011;36669;51.428;21.162;2022-10-31T01:56:30;156.95;;;69.20;;
44885;SDS011;36669;51.428;21.162;2022-10-31T01:58:58;298.50;;;74.07;;
44885;SDS011;36669;51.428;21.162;2022-10-31T02:01:25;457.13;;;72.28;;
44885;SDS011;36669;51.428;21.162;2022-10-31T02:03:51;504.52;;;76.93;;
44885;SDS011;36669;51.428;21.162;2022-10-31T02:06:38;638.58;;;75.07;;
44885;SDS011;36669;51.428;21.162;2022-10-31T02:09:11;496.63;;;70.78;;
44885;SDS011;36669;51.428;21.162;2022-10-31T02:11:38;202.60;;;60.30;;
44885;SDS011;36669;51.428;21.162;2022-10-31T02:14:05;392.02;;;64.07;;
44885;SDS011;36669;51.428;21.162;2022-10-31T02:16:30;520.30;;;64.10;;
44885;SDS011;36669;51.428;21.162;2022-10-31T02:18:56;284.33;;;56.58;;
44885;SDS011;36669;51.428;21.162;2022-10-31T02:21:43;333.05;;;58.95;;
44885;SDS011;36669;51.428;21.162;2022-10-31T02:27:09;377.30;;;59.05;;
44885;SDS011;36669;51.428;21.162;2022-10-31T02:38:13;299.02;;;58.95;;
44885;SDS011;36669;51.428;21.162;2022-10-31T02:46:13;206.52;;;49.28;;
44885;SDS011;36669;51.428;21.162;2022-10-31T02:48:44;358.25;;;51.35;;
44885;SDS011;36669;51.428;21.162;2022-10-31T02:51:12;279.48;;;51.92;;
44885;SDS011;36669;51.428;21.162;2022-10-31T02:53:39;307.30;;;54.95;;
44885;SDS011;36669;51.428;21.162;2022-10-31T02:58:38;234.77;;;47.33;;
44885;SDS011;36669;51.428;21.162;2022-10-31T03:11:43;354.02;;;54.30;;
44885;SDS011;36669;51.428;21.162;2022-10-31T03:14:20;176.60;;;50.80;;
44885;SDS011;36669;51.428;21.162;2022-10-31T03:16:53;445.73;;;69.72;;
44885;SDS011;36669;51.428;21.162;2022-10-31T03:19:25;292.42;;;66.75;;
44885;SDS011;36669;51.428;21.162;2022-10-31T03:21:56;234.98;;;55.95;;
44885;SDS011;36669;51.428;21.162;2022-10-31T03:24:30;172.07;;;50.60;;
44885;SDS011;36669;51.428;21.162;2022-10-31T03:27:01;194.85;;;51.05;;
44885;SDS011;36669;51.428;21.162;2022-10-31T03:29:32;174.65;;;46.53;;
44885;SDS011;36669;51.428;21.162;2022-10-31T03:32:02;245.30;;;57.55;;
44885;SDS011;36669;51.428;21.162;2022-10-31T03:34:32;244.43;;;65.00;;
44885;SDS011;36669;51.428;21.162;2022-10-31T03:37:01;217.88;;;56.85;;
44885;SDS011;36669;51.428;21.162;2022-10-31T03:39:29;268.02;;;69.63;;
44885;SDS011;36669;51.428;21.162;2022-10-31T03:42:14;215.70;;;62.72;;
44885;SDS011;36669;51.428;21.162;2022-10-31T03:44:50;261.95;;;57.95;;
44885;SDS011;36669;51.428;21.162;2022-10-31T03:47:33;216.68;;;54.15;;
44885;SDS011;36669;51.428;21.162;2022-10-31T03:50:02;231.18;;;52.03;;
44885;SDS011;36669;51.428;21.162;2022-10-31T03:52:30;227.20;;;51.00;;
44885;SDS011;36669;51.428;21.162;2022-10-31T03:55:10;272.83;;;57.40;;
44885;SDS011;36669;51.428;21.162;2022-10-31T03:57:43;288.52;;;57.22;;
44885;SDS011;36669;51.428;21.162;2022-10-31T04:00:11;299.50;;;59.85;;
44885;SDS011;36669;51.428;21.162;2022-10-31T04:02:40;468.80;;;78.70;;
44885;SDS011;36669;51.428;21.162;2022-10-31T04:05:10;525.58;;;81.55;;
44885;SDS011;36669;51.428;21.162;2022-10-31T04:07:45;304.73;;;65.63;;
44885;SDS011;36669;51.428;21.162;2022-10-31T04:10:14;240.27;;;66.38;;
44885;SDS011;36669;51.428;21.162;2022-10-31T04:12:41;379.20;;;77.97;;
44885;SDS011;36669;51.428;21.162;2022-10-31T04:15:11;259.58;;;70.18;;
44885;SDS011;36669;51.428;21.162;2022-10-31T04:17:40;266.50;;;70.00;;
44885;SDS011;36669;51.428;21.162;2022-10-31T04:20:09;262.13;;;69.68;;
44885;SDS011;36669;51.428;21.162;2022-10-31T04:22:34;216.82;;;62.67;;
44885;SDS011;36669;51.428;21.162;2022-10-31T04:25:00;227.13;;;66.13;;
44885;SDS011;36669;51.428;21.162;2022-10-31T04:27:27;247.02;;;64.40;;
44885;SDS011;36669;51.428;21.162;2022-10-31T04:29:52;316.90;;;68.00;;
44885;SDS011;36669;51.428;21.162;2022-10-31T04:32:18;357.33;;;73.40;;
44885;SDS011;36669;51.428;21.162;2022-10-31T04:34:43;236.60;;;64.32;;
44885;SDS011;36669;51.428;21.162;2022-10-31T04:37:09;287.45;;;68.47;;
44885;SDS011;36669;51.428;21.162;2022-10-31T04:39:34;328.33;;;72.28;;
44885;SDS011;36669;51.428;21.162;2022-10-31T04:42:00;287.38;;;71.63;;
44885;SDS011;36669;51.428;21.162;2022-10-31T04:44:25;452.23;;;69.32;;
44885;SDS011;36669;51.428;21.162;2022-10-31T04:46:51;400.77;;;64.57;;
44885;SDS011;36669;51.428;21.162;2022-10-31T04:49:17;293.88;;;64.07;;
44885;SDS011;36669;51.428;21.162;2022-10-31T04:51:43;263.17;;;59.67;;
44885;SDS011;36669;51.428;21.162;2022-10-31T04:54:08;444.55;;;59.10;;
44885;SDS011;36669;51.428;21.162;2022-10-31T04:56:34;257.10;;;51.22;;
44885;SDS011;36669;51.428;21.162;2022-10-31T04:58:59;257.25;;;63.00;;
44885;SDS011;36669;51.428;21.162;2022-10-31T05:01:25;263.70;;;47.90;;
44885;SDS011;36669;51.428;21.162;2022-10-31T05:03:50;305.27;;;46.60;;
44885;SDS011;36669;51.428;21.162;2022-10-31T05:06:16;329.98;;;47.08;;
44885;SDS011;36669;51.428;21.162;2022-10-31T05:08:41;274.35;;;49.33;;
44885;SDS011;36669;51.428;21.162;2022-10-31T05:11:07;315.15;;;48.63;;
44885;SDS011;36669;51.428;21.162;2022-10-31T05:13:34;184.15;;;41.25;;
44885;SDS011;36669;51.428;21.162;2022-10-31T05:15:59;456.52;;;49.35;;
44885;SDS011;36669;51.428;21.162;2022-10-31T05:18:25;298.70;;;45.20;;
44885;SDS011;36669;51.428;21.162;2022-10-31T05:20:50;413.38;;;49.28;;
44885;SDS011;36669;51.428;21.162;2022-10-31T05:23:16;377.77;;;46.55;;
44885;SDS011;36669;51.428;21.162;2022-10-31T05:25:41;225.77;;;42.78;;
44885;SDS011;36669;51.428;21.162;2022-10-31T05:28:07;531.20;;;47.58;;
44885;SDS011;36669;51.428;21.162;2022-10-31T05:30:33;329.60;;;43.88;;
44885;SDS011;36669;51.428;21.162;2022-10-31T05:32:59;337.38;;;45.13;;
44885;SDS011;36669;51.428;21.162;2022-10-31T05:35:28;224.15;;;40.78;;
44885;SDS011;36669;51.428;21.162;2022-10-31T05:37:55;282.85;;;40.70;;
44885;SDS011;36669;51.428;21.162;2022-10-31T05:40:21;357.40;;;42.88;;
44885;SDS011;36669;51.428;21.162;2022-10-31T05:42:47;490.42;;;47.13;;
44885;SDS011;36669;51.428;21.162;2022-10-31T05:45:16;619.38;;;49.20;;
44885;SDS011;36669;51.428;21.162;2022-10-31T05:47:49;166.23;;;38.45;;
44885;SDS011;36669;51.428;21.162;2022-10-31T05:50:19;222.52;;;40.78;;
44885;SDS011;36669;51.428;21.162;2022-10-31T05:52:44;211.35;;;40.58;;
44885;SDS011;36669;51.428;21.162;2022-10-31T05:55:10;206.40;;;48.90;;
44885;SDS011;36669;51.428;21.162;2022-10-31T05:57:36;194.10;;;41.30;;
44885;SDS011;36669;51.428;21.162;2022-10-31T06:00:01;187.27;;;36.80;;
44885;SDS011;36669;51.428;21.162;2022-10-31T06:02:27;311.67;;;38.17;;
44885;SDS011;36669;51.428;21.162;2022-10-31T06:04:54;332.60;;;38.83;;
44885;SDS011;36669;51.428;21.162;2022-10-31T06:07:21;301.65;;;38.90;;
44885;SDS011;36669;51.428;21.162;2022-10-31T06:09:47;322.17;;;38.38;;
44885;SDS011;36669;51.428;21.162;2022-10-31T06:12:12;141.77;;;35.03;;
44885;SDS011;36669;51.428;21.162;2022-10-31T06:14:38;206.73;;;36.78;;
44885;SDS011;36669;51.428;21.162;2022-10-31T06:17:03;333.65;;;40.97;;
44885;SDS011;36669;51.428;21.162;2022-10-31T06:19:29;167.88;;;34.60;;
44885;SDS011;36669;51.428;21.162;2022-10-31T06:21:54;194.95;;;36.60;;
44885;SDS011;36669;51.428;21.162;2022-10-31T06:24:20;242.50;;;36.97;;
44885;SDS011;36669;51.428;21.162;2022-10-31T06:26:45;341.40;;;39.13;;
44885;SDS011;36669;51.428;21.162;2022-10-31T06:29:11;176.73;;;37.38;;
44885;SDS011;36669;51.428;21.162;2022-10-31T06:31:37;136.65;;;35.80;;
44885;SDS011;36669;51.428;21.162;2022-10-31T06:34:03;154.75;;;36.53;;
44885;SDS011;36669;51.428;21.162;2022-10-31T06:36:30;270.92;;;38.70;;
44885;SDS011;36669;51.428;21.162;2022-10-31T06:38:55;261.63;;;39.30;;
44885;SDS011;36669;51.428;21.162;2022-10-31T06:41:21;238.80;;;39.45;;
44885;SDS011;36669;51.428;21.162;2022-10-31T06:43:46;264.98;;;40.72;;
44885;SDS011;36669;51.428;21.162;2022-10-31T06:46:12;167.02;;;38.40;;
44885;SDS011;36669;51.428;21.162;2022-10-31T06:48:37;353.70;;;46.53;;
44885;SDS011;36669;51.428;21.162;2022-10-31T06:51:06;189.20;;;42.80;;
44885;SDS011;36669;51.428;21.162;2022-10-31T06:53:33;202.75;;;45.95;;
44885;SDS011;36669;51.428;21.162;2022-10-31T06:55:59;292.73;;;49.03;;
44885;SDS011;36669;51.428;21.162;2022-10-31T06:58:24;246.52;;;44.03;;
44885;SDS011;36669;51.428;21.162;2022-10-31T07:00:52;435.48;;;45.70;;
44885;SDS011;36669;51.428;21.162;2022-10-31T07:03:20;172.70;;;39.63;;
44885;SDS011;36669;51.428;21.162;2022-10-31T07:05:48;238.25;;;40.35;;
44885;SDS011;36669;51.428;21.162;2022-10-31T07:08:15;233.65;;;39.70;;
44885;SDS011;36669;51.428;21.162;2022-10-31T07:10:42;220.50;;;40.70;;
44885;SDS011;36669;51.428;21.162;2022-10-31T07:13:16;185.65;;;41.72;;
44885;SDS011;36669;51.428;21.162;2022-10-31T07:15:43;200.75;;;41.38;;
44885;SDS011;36669;51.428;21.162;2022-10-31T07:18:11;224.07;;;66.22;;
44885;SDS011;36669;51.428;21.162;2022-10-31T07:20:39;216.05;;;48.50;;
44885;SDS011;36669;51.428;21.162;2022-10-31T07:23:08;206.77;;;47.78;;
44885;SDS011;36669;51.428;21.162;2022-10-31T07:25:35;188.00;;;39.95;;
44885;SDS011;36669;51.428;21.162;2022-10-31T07:28:04;157.98;;;37.83;;
44885;SDS011;36669;51.428;21.162;2022-10-31T07:30:32;159.32;;;35.10;;
44885;SDS011;36669;51.428;21.162;2022-10-31T07:33:00;150.60;;;34.03;;
44885;SDS011;36669;51.428;21.162;2022-10-31T07:35:27;124.80;;;34.47;;
44885;SDS011;36669;51.428;21.162;2022-10-31T07:38:10;154.77;;;34.97;;
44885;SDS011;36669;51.428;21.162;2022-10-31T07:40:39;228.15;;;36.00;;
44885;SDS011;36669;51.428;21.162;2022-10-31T07:43:10;167.15;;;35.08;;
44885;SDS011;36669;51.428;21.162;2022-10-31T07:45:37;138.13;;;33.40;;
44885;SDS011;36669;51.428;21.162;2022-10-31T07:48:04;127.78;;;34.35;;
44885;SDS011;36669;51.428;21.162;2022-10-31T07:50:31;115.20;;;32.95;;
44885;SDS011;36669;51.428;21.162;2022-10-31T07:53:03;104.85;;;34.03;;
44885;SDS011;36669;51.428;21.162;2022-10-31T07:55:36;109.10;;;32.13;;
44885;SDS011;36669;51.428;21.162;2022-10-31T07:58:05;91.53;;;30.58;;
44885;SDS011;36669;51.428;21.162;2022-10-31T08:00:34;100.97;;;31.73;;
44885;SDS011;36669;51.428;21.162;2022-10-31T08:03:02;128.40;;;34.47;;
44885;SDS011;36669;51.428;21.162;2022-10-31T08:05:30;108.15;;;31.58;;
44885;SDS011;36669;51.428;21.162;2022-10-31T08:07:57;112.05;;;31.35;;
44885;SDS011;36669;51.428;21.162;2022-10-31T08:10:24;124.30;;;32.33;;
44885;SDS011;36669;51.428;21.162;2022-10-31T08:13:02;96.63;;;31.27;;
44885;SDS011;36669;51.428;21.162;2022-10-31T08:15:46;91.40;;;32.13;;
44885;SDS011;36669;51.428;21.162;2022-10-31T08:18:14;81.22;;;29.85;;
44885;SDS011;36669;51.428;21.162;2022-10-31T08:20:46;72.72;;;27.33;;
44885;SDS011;36669;51.428;21.162;2022-10-31T08:23:12;74.88;;;28.50;;
44885;SDS011;36669;51.428;21.162;2022-10-31T08:25:39;70.30;;;29.77;;
44885;SDS011;36669;51.428;21.162;2022-10-31T08:28:07;76.18;;;31.25;;
44885;SDS011;36669;51.428;21.162;2022-10-31T08:30:43;78.43;;;31.30;;
44885;SDS011;36669;51.428;21.162;2022-10-31T08:33:14;78.28;;;32.03;;
44885;SDS011;36669;51.428;21.162;2022-10-31T08:35:42;70.07;;;31.33;;
44885;SDS011;36669;51.428;21.162;2022-10-31T08:38:10;67.70;;;29.17;;
44885;SDS011;36669;51.428;21.162;2022-10-31T08:40:38;74.07;;;30.52;;
44885;SDS011;36669;51.428;21.162;2022-10-31T08:43:05;85.60;;;37.25;;
44885;SDS011;36669;51.428;21.162;2022-10-31T08:45:37;72.47;;;35.15;;
44885;SDS011;36669;51.428;21.162;2022-10-31T08:48:05;66.75;;;30.58;;
44885;SDS011;36669;51.428;21.162;2022-10-31T08:50:36;70.82;;;29.58;;
44885;SDS011;36669;51.428;21.162;2022-10-31T08:53:07;75.97;;;30.42;;
44885;SDS011;36669;51.428;21.162;2022-10-31T08:58:06;72.45;;;31.33;;
44885;SDS011;36669;51.428;21.162;2022-10-31T09:00:35;76.70;;;34.38;;
44885;SDS011;36669;51.428;21.162;2022-10-31T09:03:03;69.88;;;33.47;;
44885;SDS011;36669;51.428;21.162;2022-10-31T09:05:32;71.82;;;33.03;;
44885;SDS011;36669;51.428;21.162;2022-10-31T09:08:01;68.35;;;32.47;;
44885;SDS011;36669;51.428;21.162;2022-10-31T09:10:30;70.43;;;33.33;;
44885;SDS011;36669;51.428;21.162;2022-10-31T09:13:21;65.00;;;34.35;;
44885;SDS011;36669;51.428;21.162;2022-10-31T09:15:48;68.15;;;33.53;;
44885;SDS011;36669;51.428;21.162;2022-10-31T09:18:17;67.68;;;32.85;;
44885;SDS011;36669;51.428;21.162;2022-10-31T09:20:48;74.65;;;36.40;;
44885;SDS011;36669;51.428;21.162;2022-10-31T09:23:19;72.00;;;34.72;;
44885;SDS011;36669;51.428;21.162;2022-10-31T09:25:48;71.60;;;34.60;;
44885;SDS011;36669;51.428;21.162;2022-10-31T09:28:17;66.20;;;36.13;;
44885;SDS011;36669;51.428;21.162;2022-10-31T09:30:53;68.50;;;33.95;;
44885;SDS011;36669;51.428;21.162;2022-10-31T09:33:20;74.95;;;37.92;;
44885;SDS011;36669;51.428;21.162;2022-10-31T09:35:47;68.38;;;36.05;;
44885;SDS011;36669;51.428;21.162;2022-10-31T09:38:18;64.75;;;34.22;;
44885;SDS011;36669;51.428;21.162;2022-10-31T09:40:49;65.32;;;35.10;;
44885;SDS011;36669;51.428;21.162;2022-10-31T09:49:53;65.20;;;32.45;;
44885;SDS011;36669;51.428;21.162;2022-10-31T09:52:54;66.60;;;34.22;;
44885;SDS011;36669;51.428;21.162;2022-10-31T09:55:36;58.92;;;32.10;;
44885;SDS011;36669;51.428;21.162;2022-10-31T09:58:24;64.40;;;33.33;;
44885;SDS011;36669;51.428;21.162;2022-10-31T10:00:54;70.85;;;34.05;;
44885;SDS011;36669;51.428;21.162;2022-10-31T10:03:49;63.13;;;33.85;;
44885;SDS011;36669;51.428;21.162;2022-10-31T10:06:27;73.80;;;37.30;;
44885;SDS011;36669;51.428;21.162;2022-10-31T10:09:01;77.68;;;36.92;;
44885;SDS011;36669;51.428;21.162;2022-10-31T10:28:44;66.53;;;34.95;;
44885;SDS011;36669;51.428;21.162;2022-10-31T10:31:22;72.25;;;35.58;;
44885;SDS011;36669;51.428;21.162;2022-10-31T10:34:36;69.45;;;34.47;;
44885;SDS011;36669;51.428;21.162;2022-10-31T10:37:03;65.03;;;34.47;;
44885;SDS011;36669;51.428;21.162;2022-10-31T10:39:38;65.28;;;34.83;;
44885;SDS011;36669;51.428;21.162;2022-10-31T10:42:12;69.18;;;35.60;;
44885;SDS011;36669;51.428;21.162;2022-10-31T10:44:43;72.97;;;37.28;;
44885;SDS011;36669;51.428;21.162;2022-10-31T10:47:13;71.20;;;37.28;;
44885;SDS011;36669;51.428;21.162;2022-10-31T10:49:50;65.72;;;36.58;;
44885;SDS011;36669;51.428;21.162;2022-10-31T10:57:57;66.13;;;36.30;;
44885;SDS011;36669;51.428;21.162;2022-10-31T11:00:49;75.22;;;37.42;;
44885;SDS011;36669;51.428;21.162;2022-10-31T11:03:16;75.88;;;37.97;;
44885;SDS011;36669;51.428;21.162;2022-10-31T11:05:54;72.80;;;35.85;;
44885;SDS011;36669;51.428;21.162;2022-10-31T11:08:28;64.43;;;36.70;;
44885;SDS011;36669;51.428;21.162;2022-10-31T11:11:03;72.50;;;37.55;;
44885;SDS011;36669;51.428;21.162;2022-10-31T11:14:14;64.95;;;36.78;;
44885;SDS011;36669;51.428;21.162;2022-10-31T11:16:45;72.00;;;37.55;;
44885;SDS011;36669;51.428;21.162;2022-10-31T11:19:25;74.82;;;39.72;;
44885;SDS011;36669;51.428;21.162;2022-10-31T11:21:54;70.75;;;38.40;;
44885;SDS011;36669;51.428;21.162;2022-10-31T11:24:46;75.72;;;38.17;;
44885;SDS011;36669;51.428;21.162;2022-10-31T11:27:21;76.18;;;38.92;;
44885;SDS011;36669;51.428;21.162;2022-10-31T11:29:50;80.63;;;39.50;;
44885;SDS011;36669;51.428;21.162;2022-10-31T11:32:26;70.43;;;37.83;;
44885;SDS011;36669;51.428;21.162;2022-10-31T11:34:53;77.50;;;39.78;;
44885;SDS011;36669;51.428;21.162;2022-10-31T11:37:32;75.75;;;38.65;;
44885;SDS011;36669;51.428;21.162;2022-10-31T11:40:06;78.18;;;40.70;;
44885;SDS011;36669;51.428;21.162;2022-10-31T11:42:41;82.60;;;41.17;;
44885;SDS011;36669;51.428;21.162;2022-10-31T11:47:58;71.28;;;37.42;;
44885;SDS011;36669;51.428;21.162;2022-10-31T11:50:28;74.70;;;38.85;;
44885;SDS011;36669;51.428;21.162;2022-10-31T11:53:16;84.22;;;45.28;;
44885;SDS011;36669;51.428;21.162;2022-10-31T11:55:46;77.28;;;42.00;;
44885;SDS011;36669;51.428;21.162;2022-10-31T11:58:24;73.65;;;39.00;;
44885;SDS011;36669;51.428;21.162;2022-10-31T12:00:53;80.45;;;41.80;;
44885;SDS011;36669;51.428;21.162;2022-10-31T12:03:38;81.45;;;41.05;;
44885;SDS011;36669;51.428;21.162;2022-10-31T12:06:18;80.15;;;42.13;;
44885;SDS011;36669;51.428;21.162;2022-10-31T12:08:48;83.82;;;42.28;;
44885;SDS011;36669;51.428;21.162;2022-10-31T12:25:53;89.68;;;44.38;;
44885;SDS011;36669;51.428;21.162;2022-10-31T12:31:33;87.32;;;44.22;;
44885;SDS011;36669;51.428;21.162;2022-10-31T12:49:33;95.18;;;46.03;;
44885;SDS011;36669;51.428;21.162;2022-10-31T12:58:01;104.20;;;47.85;;
44885;SDS011;36669;51.428;21.162;2022-10-31T13:07:16;108.13;;;52.35;;
44885;SDS011;36669;51.428;21.162;2022-10-31T13:12:51;105.20;;;49.38;;
44885;SDS011;36669;51.428;21.162;2022-10-31T13:15:26;125.68;;;53.78;;
44885;SDS011;36669;51.428;21.162;2022-10-31T13:17:59;117.70;;;52.13;;
44885;SDS011;36669;51.428;21.162;2022-10-31T13:20:34;117.88;;;51.50;;
44885;SDS011;36669;51.428;21.162;2022-10-31T13:23:32;113.55;;;51.55;;
44885;SDS011;36669;51.428;21.162;2022-10-31T13:26:06;116.82;;;49.75;;
44885;SDS011;36669;51.428;21.162;2022-10-31T13:31:32;123.80;;;52.00;;
44885;SDS011;36669;51.428;21.162;2022-10-31T13:34:04;120.43;;;54.30;;
44885;SDS011;36669;51.428;21.162;2022-10-31T13:36:45;134.30;;;52.37;;
44885;SDS011;36669;51.428;21.162;2022-10-31T13:45:16;133.07;;;52.72;;
44885;SDS011;36669;51.428;21.162;2022-10-31T13:47:54;137.18;;;53.35;;
44885;SDS011;36669;51.428;21.162;2022-10-31T13:50:35;132.18;;;54.38;;
44885;SDS011;36669;51.428;21.162;2022-10-31T13:53:14;143.30;;;58.08;;
44885;SDS011;36669;51.428;21.162;2022-10-31T13:55:50;139.00;;;54.53;;
44885;SDS011;36669;51.428;21.162;2022-10-31T13:58:38;144.45;;;55.75;;
44885;SDS011;36669;51.428;21.162;2022-10-31T14:01:23;151.65;;;53.95;;
44885;SDS011;36669;51.428;21.162;2022-10-31T14:12:45;138.45;;;52.67;;
44885;SDS011;36669;51.428;21.162;2022-10-31T14:17:50;122.07;;;50.75;;
44885;SDS011;36669;51.428;21.162;2022-10-31T14:20:40;132.57;;;53.45;;
44885;SDS011;36669;51.428;21.162;2022-10-31T14:26:57;146.88;;;57.58;;
44885;SDS011;36669;51.428;21.162;2022-10-31T14:28:56;140.80;;;53.97;;
44885;SDS011;36669;51.428;21.162;2022-10-31T14:31:42;137.32;;;53.83;;
44885;SDS011;36669;51.428;21.162;2022-10-31T14:49:32;142.00;;;55.13;;
44885;SDS011;36669;51.428;21.162;2022-10-31T14:52:21;134.13;;;53.58;;
44885;SDS011;36669;51.428;21.162;2022-10-31T14:54:49;131.00;;;50.17;;
44885;SDS011;36669;51.428;21.162;2022-10-31T14:57:33;130.65;;;51.08;;
44885;SDS011;36669;51.428;21.162;2022-10-31T15:00:06;239.35;;;54.55;;
44885;SDS011;36669;51.428;21.162;2022-10-31T15:03:26;180.93;;;55.17;;
44885;SDS011;36669;51.428;21.162;2022-10-31T15:05:48;218.13;;;55.70;;
44885;SDS011;36669;51.428;21.162;2022-10-31T15:11:14;304.75;;;55.90;;
44885;SDS011;36669;51.428;21.162;2022-10-31T15:13:47;181.98;;;54.90;;
44885;SDS011;36669;51.428;21.162;2022-10-31T15:16:25;225.77;;;56.30;;
44885;SDS011;36669;51.428;21.162;2022-10-31T15:18:59;240.00;;;55.20;;
44885;SDS011;36669;51.428;21.162;2022-10-31T15:21:32;205.07;;;53.35;;
44885;SDS011;36669;51.428;21.162;2022-10-31T15:24:30;262.98;;;58.42;;
44885;SDS011;36669;51.428;21.162;2022-10-31T15:27:00;188.77;;;56.20;;
44885;SDS011;36669;51.428;21.162;2022-10-31T15:29:27;219.65;;;55.47;;
44885;SDS011;36669;51.428;21.162;2022-10-31T15:32:15;247.40;;;53.22;;
44885;SDS011;36669;51.428;21.162;2022-10-31T15:34:46;159.20;;;50.00;;
44885;SDS011;36669;51.428;21.162;2022-10-31T15:37:13;165.60;;;51.40;;
44885;SDS011;36669;51.428;21.162;2022-10-31T15:39:44;198.20;;;53.53;;
44885;SDS011;36669;51.428;21.162;2022-10-31T15:45:05;226.55;;;50.60;;
44885;SDS011;36669;51.428;21.162;2022-10-31T15:47:45;154.57;;;48.47;;
44885;SDS011;36669;51.428;21.162;2022-10-31T15:50:28;173.35;;;49.38;;
44885;SDS011;36669;51.428;21.162;2022-10-31T15:52:56;152.20;;;48.90;;
44885;SDS011;36669;51.428;21.162;2022-10-31T15:55:26;179.27;;;46.95;;
44885;SDS011;36669;51.428;21.162;2022-10-31T15:57:57;156.57;;;46.00;;
44885;SDS011;36669;51.428;21.162;2022-10-31T16:03:08;156.10;;;49.15;;
44885;SDS011;36669;51.428;21.162;2022-10-31T16:10:56;130.88;;;42.53;;
44885;SDS011;36669;51.428;21.162;2022-10-31T16:13:27;163.65;;;41.10;;
44885;SDS011;36669;51.428;21.162;2022-10-31T16:16:13;143.07;;;41.40;;
44885;SDS011;36669;51.428;21.162;2022-10-31T16:18:40;159.30;;;43.25;;
44885;SDS011;36669;51.428;21.162;2022-10-31T16:21:07;269.65;;;45.10;;
44885;SDS011;36669;51.428;21.162;2022-10-31T16:23:33;141.40;;;41.13;;
44885;SDS011;36669;51.428;21.162;2022-10-31T16:26:05;236.38;;;44.67;;
44885;SDS011;36669;51.428;21.162;2022-10-31T16:28:31;199.20;;;45.08;;
44885;SDS011;36669;51.428;21.162;2022-10-31T16:30:57;311.02;;;48.92;;
44885;SDS011;36669;51.428;21.162;2022-10-31T16:35:54;226.25;;;53.95;;
44885;SDS011;36669;51.428;21.162;2022-10-31T16:38:21;295.55;;;54.55;;
44885;SDS011;36669;51.428;21.162;2022-10-31T16:40:46;286.20;;;54.35;;
44885;SDS011;36669;51.428;21.162;2022-10-31T16:43:14;222.45;;;61.78;;
44885;SDS011;36669;51.428;21.162;2022-10-31T16:45:42;254.68;;;55.97;;
44885;SDS011;36669;51.428;21.162;2022-10-31T16:48:10;247.57;;;53.42;;
44885;SDS011;36669;51.428;21.162;2022-10-31T16:50:38;198.60;;;52.00;;
44885;SDS011;36669;51.428;21.162;2022-10-31T16:53:03;217.88;;;51.13;;
44885;SDS011;36669;51.428;21.162;2022-10-31T16:55:29;248.32;;;49.85;;
44885;SDS011;36669;51.428;21.162;2022-10-31T16:57:56;294.13;;;53.17;;
44885;SDS011;36669;51.428;21.162;2022-10-31T17:00:23;552.83;;;57.55;;
44885;SDS011;36669;51.428;21.162;2022-10-31T17:02:51;242.05;;;52.92;;
44885;SDS011;36669;51.428;21.162;2022-10-31T17:05:19;271.90;;;53.55;;
44885;SDS011;36669;51.428;21.162;2022-10-31T17:07:46;352.90;;;53.72;;
44885;SDS011;36669;51.428;21.162;2022-10-31T17:10:12;297.30;;;54.65;;
44885;SDS011;36669;51.428;21.162;2022-10-31T17:12:40;165.85;;;47.10;;